Time;durP1;ratioP1;P1;durP2;ratioP2;P2;SDS_P1;SDS_P2;PMS_P1;PMS_P2;Temp;Humidity;BMP_temperature;BMP_pressure;BME280_temperature;BME280_humidity;BME280_pressure;Samples;Min_cycle;Max_cycle;Signal;HPM_P1;HPM_P2
2023/03/02 00:02:22;;;;;;;24.73;12.05;;;12.10;80.60;;;;;;5035053;28;20052;-75
2023/03/02 00:05:28;;;;;;;23.60;11.48;;;12.10;80.80;;;;;;5033613;28;20405;-75
2023/03/02 00:08:33;;;;;;;20.52;11.68;;;11.90;81.40;;;;;;5034507;28;20048;-75
2023/03/02 00:11:38;;;;;;;22.88;12.75;;;11.70;82.60;;;;;;5033110;28;20049;-75
2023/03/02 00:14:42;;;;;;;14.15;9.27;;;11.70;80.50;;;;;;5034252;28;20040;-75
2023/03/02 00:17:46;;;;;;;18.98;11.60;;;11.80;80.80;;;;;;5033440;28;20045;-75
2023/03/02 00:20:50;;;;;;;18.27;9.40;;;;;;;;;;5033643;28;20040;-75
2023/03/02 00:23:55;;;;;;;17.85;9.93;;;11.90;81.20;;;;;;5034106;28;20037;-75
2023/03/02 00:26:59;;;;;;;18.10;10.15;;;12.00;81.10;;;;;;5033776;28;20062;-75
2023/03/02 00:30:04;;;;;;;19.02;10.40;;;12.00;80.80;;;;;;5033490;28;20044;-75
2023/03/02 00:33:08;;;;;;;16.30;9.65;;;12.00;81.00;;;;;;5033397;28;20040;-76
2023/03/02 00:36:17;;;;;;;15.57;9.68;;;11.80;82.20;;;;;;5033240;28;20052;-75
2023/03/02 00:39:20;;;;;;;17.08;9.77;;;11.80;82.70;;;;;;5033542;28;20052;-75
2023/03/02 00:42:24;;;;;;;18.40;9.90;;;11.90;82.60;;;;;;5021410;28;20044;-75
2023/03/02 00:45:29;;;;;;;16.10;10.25;;;11.80;82.40;;;;;;5032010;28;20060;-76
2023/03/02 00:48:33;;;;;;;22.77;9.95;;;11.80;83.50;;;;;;5033268;28;20048;-76
2023/03/02 00:51:37;;;;;;;19.13;10.35;;;11.80;85.00;;;;;;5031804;28;20056;-75
2023/03/02 00:54:42;;;;;;;17.15;10.13;;;12.10;84.50;;;;;;5033222;28;20504;-75
2023/03/02 00:57:53;;;;;;;14.52;9.05;;;11.60;85.80;;;;;;5032182;28;20060;-76
2023/03/02 01:01:07;;;;;;;16.52;9.80;;;11.40;86.20;;;;;;5032518;28;20528;-75
2023/03/02 01:04:14;;;;;;;20.83;9.00;;;11.50;85.90;;;;;;5032353;28;20508;-75
2023/03/02 01:07:25;;;;;;;21.92;9.68;;;11.50;84.50;;;;;;5032331;28;20052;-75
2023/03/02 01:10:32;;;;;;;17.88;8.77;;;;;;;;;;5033846;28;20033;-76
2023/03/02 01:13:36;;;;;;;14.48;8.18;;;12.30;85.40;;;;;;5032433;28;20053;-76
2023/03/02 01:16:40;;;;;;;12.73;6.30;;;10.50;82.30;;;;;;5033989;28;20044;-76
2023/03/02 01:19:44;;;;;;;14.40;6.68;;;10.20;83.20;;;;;;5034471;28;20089;-75
2023/03/02 01:22:48;;;;;;;11.48;4.85;;;14.50;85.90;;;;;;5045308;28;20043;-76
2023/03/02 01:25:52;;;;;;;5.70;2.78;;;11.70;84.50;;;;;;5047276;28;20031;-75
2023/03/02 01:28:56;;;;;;;5.65;2.47;;;11.80;85.10;;;;;;5047106;28;20044;-74
2023/03/02 01:32:01;;;;;;;8.90;1.90;;;11.80;84.90;;;;;;5046647;28;20029;-75
2023/03/02 01:35:05;;;;;;;11.02;2.00;;;11.10;85.40;;;;;;5045986;28;20063;-73
2023/03/02 01:38:09;;;;;;;4.65;1.45;;;11.70;86.40;;;;;;5034295;28;20044;-74
2023/03/02 01:41:13;;;;;;;4.55;1.90;;;10.80;87.20;;;;;;5046502;28;20039;-74
2023/03/02 01:44:43;;;;;;;5.93;2.22;;;11.80;88.30;;;;;;5046668;28;20028;-74
2023/03/02 01:47:47;;;;;;;9.73;1.60;;;11.60;87.80;;;;;;5047130;28;20048;-75
2023/03/02 01:50:56;;;;;;;5.78;1.67;;;11.70;87.90;;;;;;5046140;28;20029;-75
2023/03/02 01:54:09;;;;;;;7.47;2.00;;;11.70;87.60;;;;;;5046721;28;20043;-75
2023/03/02 01:57:13;;;;;;;6.72;1.55;;;11.60;87.90;;;;;;5046516;28;20041;-74
2023/03/02 02:00:23;;;;;;;8.80;1.65;;;11.80;88.20;;;;;;5046298;28;20026;-75
2023/03/02 02:03:29;;;;;;;4.47;1.63;;;11.60;88.00;;;;;;5046518;28;20044;-76
2023/03/02 02:06:52;;;;;;;8.05;1.88;;;11.70;88.40;;;;;;5046731;28;20051;-75
2023/03/02 02:09:57;;;;;;;7.07;1.60;;;;;;;;;;5045942;28;20048;-76
2023/03/02 02:13:01;;;;;;;3.67;1.83;;;;;;;;;;5045318;28;20038;-76
2023/03/02 02:16:06;;;;;;;6.70;1.90;;;11.60;88.70;;;;;;5045579;28;20045;-76
2023/03/02 02:19:34;;;;;;;5.57;1.77;;;11.20;88.40;;;;;;5045896;28;20044;-76
2023/03/02 02:22:59;;;;;;;7.45;1.77;;;13.10;89.90;;;;;;5035023;28;20048;-76
2023/03/02 02:26:39;;;;;;;7.00;2.20;;;11.40;90.10;;;;;;5032530;28;20052;-76
2023/03/02 02:29:48;;;;;;;6.45;1.83;;;11.50;90.20;;;;;;5026094;28;20056;-75
2023/03/02 02:32:54;;;;;;;6.75;2.35;;;11.40;89.80;;;;;;5031153;28;20048;-75
2023/03/02 02:36:02;;;;;;;8.07;1.58;;;;;;;;;;5032280;28;20477;-75
2023/03/02 02:39:15;;;;;;;9.45;1.70;;;11.60;88.80;;;;;;5031783;28;20041;-76
2023/03/02 02:42:33;;;;;;;7.70;1.70;;;11.60;89.20;;;;;;5031624;28;20064;-75
2023/03/02 02:45:38;;;;;;;9.32;1.73;;;11.30;89.80;;;;;;5030418;28;20076;-77
2023/03/02 02:48:42;;;;;;;5.60;1.65;;;;;;;;;;5030616;28;20049;-77
2023/03/02 02:51:46;;;;;;;7.22;1.85;;;11.40;91.10;;;;;;5032919;28;20067;-75
2023/03/02 02:54:55;;;;;;;8.30;1.50;;;11.30;91.30;;;;;;5031913;28;20040;-76
2023/03/02 02:58:08;;;;;;;6.80;2.20;;;11.40;91.40;;;;;;5030148;28;20045;-75
2023/03/02 03:01:19;;;;;;;5.88;1.85;;;11.50;91.40;;;;;;5030819;28;20044;-76
2023/03/02 03:04:27;;;;;;;6.57;1.95;;;11.90;91.50;;;;;;5031335;28;20060;-75
2023/03/02 03:07:32;;;;;;;5.75;1.80;;;;;;;;;;5030499;28;20520;-76
2023/03/02 03:10:41;;;;;;;6.00;1.70;;;10.90;92.00;;;;;;5030448;28;20038;-75
2023/03/02 03:13:46;;;;;;;8.85;1.60;;;11.60;92.80;;;;;;5032130;28;20048;-76
2023/03/02 03:16:51;;;;;;;12.63;2.05;;;11.40;93.00;;;;;;5032828;28;20068;-76
2023/03/02 03:20:04;;;;;;;4.45;1.70;;;12.90;93.50;;;;;;5034183;28;20393;-75
2023/03/02 03:23:09;;;;;;;11.15;2.10;;;12.80;93.70;;;;;;5022401;28;20069;-75
2023/03/02 03:26:13;;;;;;;3.13;1.88;;;9.20;92.80;;;;;;5034860;28;20404;-75
2023/03/02 03:29:17;;;;;;;6.30;1.70;;;;;;;;;;5034605;28;20046;-75
2023/03/02 03:32:22;;;;;;;7.15;2.10;;;11.20;93.30;;;;;;5033518;28;20038;-75
2023/03/02 03:35:30;;;;;;;4.43;1.73;;;;;;;;;;5033559;28;20044;-76
2023/03/02 03:38:35;;;;;;;6.38;2.22;;;11.30;93.30;;;;;;5033211;28;20053;-75
2023/03/02 03:41:39;;;;;;;7.45;1.58;;;11.40;93.50;;;;;;5033980;28;20077;-76
2023/03/02 03:44:44;;;;;;;8.35;1.88;;;;;;;;;;5033316;28;20048;-75
2023/03/02 03:47:49;;;;;;;9.18;1.80;;;;;;;;;;5033063;28;20050;-76
2023/03/02 03:50:56;;;;;;;12.02;2.33;;;11.30;94.00;;;;;;5034066;28;20366;-76
2023/03/02 03:54:07;;;;;;;9.15;1.42;;;11.30;93.90;;;;;;5033172;28;20060;-76
2023/03/02 03:57:15;;;;;;;3.47;1.42;;;;;;;;;;5022528;28;20039;-75
2023/03/02 04:00:20;;;;;;;6.10;1.85;;;11.60;94.00;;;;;;5032998;28;20390;-75
2023/03/02 04:03:30;;;;;;;6.63;1.83;;;;;;;;;;5056440;28;20064;-75
2023/03/02 04:06:34;;;;;;;3.55;1.80;;;9.20;93.80;;;;;;5032821;28;20300;-75
2023/03/02 04:09:39;;;;;;;4.47;1.75;;;;;;;;;;5033627;28;20037;-76
2023/03/02 04:12:45;;;;;;;4.47;2.08;;;;;;;;;;5033291;28;20045;-75
2023/03/02 04:15:51;;;;;;;6.45;2.00;;;;;;;;;;5032792;28;20033;-76
2023/03/02 04:18:56;;;;;;;4.15;1.77;;;12.30;95.10;;;;;;5033681;28;20034;-75
2023/03/02 04:22:02;;;;;;;3.92;1.80;;;9.80;94.60;;;;;;5033064;28;20040;-75
2023/03/02 04:25:06;;;;;;;6.03;1.83;;;11.10;95.10;;;;;;5032319;28;20037;-74
2023/03/02 04:28:11;;;;;;;4.00;2.00;;;;;;;;;;5033168;28;20481;-75
2023/03/02 04:31:17;;;;;;;6.57;1.70;;;11.10;95.80;;;;;;5032627;28;20037;-75
2023/03/02 04:34:22;;;;;;;6.22;2.33;;;11.00;96.00;;;;;;5032522;28;20400;-75
2023/03/02 04:37:26;;;;;;;6.90;1.75;;;11.10;95.70;;;;;;5032932;28;20068;-75
2023/03/02 04:40:31;;;;;;;6.45;2.30;;;;;;;;;;5033204;28;20053;-75
2023/03/02 04:43:35;;;;;;;8.93;2.50;;;;;;;;;;5033114;28;20041;-75
2023/03/02 04:46:39;;;;;;;6.72;1.85;;;11.10;95.60;;;;;;5033240;28;20383;-75
2023/03/02 04:49:44;;;;;;;8.77;1.80;;;11.30;95.70;;;;;;5032856;28;20040;-75
2023/03/02 04:52:49;;;;;;;5.95;2.00;;;11.40;96.00;;;;;;5020726;28;20041;-75
2023/03/02 04:55:53;;;;;;;6.85;1.45;;;10.40;95.90;;;;;;5032625;28;20057;-76
2023/03/02 04:58:57;;;;;;;8.43;1.90;;;;;;;;;;5032797;28;20453;-75
2023/03/02 05:02:02;;;;;;;8.18;2.10;;;;;;;;;;5032681;28;20033;-75
2023/03/02 05:05:06;;;;;;;6.00;1.48;;;11.40;96.60;;;;;;5032332;28;20045;-75
2023/03/02 05:08:11;;;;;;;7.85;1.50;;;12.30;96.80;;;;;;5032133;28;20048;-75
2023/03/02 05:11:24;;;;;;;4.80;1.60;;;11.50;96.40;;;;;;5032498;28;20049;-76
2023/03/02 05:14:29;;;;;;;5.82;1.85;;;11.50;96.60;;;;;;5032800;28;20072;-74
2023/03/02 05:17:33;;;;;;;5.25;1.48;;;11.90;96.60;;;;;;5032398;28;20041;-76
2023/03/02 05:20:38;;;;;;;6.15;1.75;;;11.30;96.70;;;;;;5032664;28;20389;-75
2023/03/02 05:23:42;;;;;;;5.75;1.50;;;;;;;;;;5032973;28;20048;-75
2023/03/02 05:26:46;;;;;;;4.65;2.13;;;11.30;96.80;;;;;;5032472;28;20049;-75
2023/03/02 05:29:50;;;;;;;6.10;2.20;;;12.80;97.40;;;;;;5032968;28;20404;-75
2023/03/02 05:32:54;;;;;;;6.78;1.77;;;;;;;;;;5032505;28;20044;-76
2023/03/02 05:35:59;;;;;;;6.63;1.90;;;11.10;97.60;;;;;;5032245;28;20033;-77
2023/03/02 05:39:04;;;;;;;6.07;2.08;;;9.90;97.90;;;;;;5031102;28;20056;-75
2023/03/02 05:42:09;;;;;;;6.55;1.98;;;10.70;98.60;;;;;;5031813;28;20029;-75
2023/03/02 05:45:26;;;;;;;5.57;1.80;;;10.90;98.60;;;;;;5032166;28;20532;-74
2023/03/02 05:48:31;;;;;;;5.93;1.70;;;10.70;98.80;;;;;;5031792;28;20049;-76
2023/03/02 05:51:35;;;;;;;4.65;1.90;;;;;;;;;;5032144;28;20390;-76
2023/03/02 05:54:39;;;;;;;4.78;1.98;;;11.10;98.90;;;;;;5032639;28;20037;-75
2023/03/02 05:57:44;;;;;;;5.65;2.05;;;11.50;99.10;;;;;;5031971;28;20045;-75
2023/03/02 06:00:49;;;;;;;6.15;2.38;;;;;;;;;;5031674;28;20044;-75
2023/03/02 06:03:53;;;;;;;11.82;3.20;;;;;;;;;;5031905;28;20041;-75
2023/03/02 06:06:57;;;;;;;6.03;2.63;;;;;;;;;;5031628;28;20037;-76
2023/03/02 06:10:03;;;;;;;8.43;2.20;;;10.70;99.10;;;;;;5030840;28;20512;-76
2023/03/02 06:13:07;;;;;;;4.38;2.35;;;10.80;99.30;;;;;;5031704;28;20045;-75
2023/03/02 06:16:11;;;;;;;6.07;2.38;;;10.80;99.60;;;;;;5031804;28;20040;-75
2023/03/02 06:19:15;;;;;;;4.90;2.33;;;11.10;99.50;;;;;;5031277;28;20060;-75
2023/03/02 06:22:19;;;;;;;5.35;2.15;;;10.80;99.30;;;;;;5031425;28;20052;-76
2023/03/02 06:25:24;;;;;;;5.68;1.85;;;10.80;99.30;;;;;;5031212;28;20045;-74
2023/03/02 06:28:28;;;;;;;8.30;2.00;;;10.80;99.30;;;;;;5031935;28;20053;-75
2023/03/02 06:31:33;;;;;;;3.55;2.03;;;;;;;;;;5030899;28;20400;-73
2023/03/02 06:34:37;;;;;;;6.93;2.65;;;11.00;99.40;;;;;;5031220;28;20045;-72
2023/03/02 06:37:41;;;;;;;6.63;2.97;;;11.10;99.50;;;;;;5032033;28;20061;-71
2023/03/02 06:40:46;;;;;;;3.83;2.28;;;10.50;99.30;;;;;;5031847;28;20057;-72
2023/03/02 06:43:49;;;;;;;5.50;2.63;;;10.60;99.10;;;;;;5018721;28;20045;-71
2023/03/02 06:46:53;;;;;;;7.15;2.35;;;11.40;99.20;;;;;;5030566;28;20052;-70
2023/03/02 06:49:58;;;;;;;5.68;2.75;;;11.40;99.20;;;;;;5032348;28;20060;-70
2023/03/02 06:53:02;;;;;;;4.82;2.90;;;;;;;;;;5035464;28;20064;-72
2023/03/02 06:56:06;;;;;;;6.20;2.30;;;11.60;99.20;;;;;;5035031;28;20033;-71
2023/03/02 06:59:10;;;;;;;5.90;2.55;;;11.70;99.10;;;;;;5035083;28;20500;-73
2023/03/02 07:02:15;;;;;;;3.63;2.30;;;;;;;;;;5034484;28;20365;-74
2023/03/02 07:05:19;;;;;;;7.28;2.25;;;;;;;;;;5034899;28;20049;-73
2023/03/02 07:08:23;;;;;;;2.88;2.28;;;11.10;99.20;;;;;;5035041;28;20045;-73
2023/03/02 07:11:27;;;;;;;4.22;2.13;;;11.10;99.40;;;;;;5035263;28;20044;-73
2023/03/02 07:14:33;;;;;;;3.58;2.03;;;10.80;99.50;;;;;;5035594;28;20052;-73
2023/03/02 07:17:38;;;;;;;3.75;1.90;;;11.70;99.80;;;;;;5034818;28;20049;-73
2023/03/02 07:20:42;;;;;;;6.95;1.70;;;;;;;;;;5035137;28;20049;-73
2023/03/02 07:23:46;;;;;;;3.17;1.67;;;11.10;99.90;;;;;;5035246;28;20485;-72
2023/03/02 07:26:50;;;;;;;2.92;1.70;;;12.00;99.90;;;;;;5035233;28;20048;-74
2023/03/02 07:29:54;;;;;;;2.60;1.50;;;10.50;99.50;;;;;;5034482;28;20048;-74
2023/03/02 07:33:00;;;;;;;6.70;1.63;;;11.20;99.60;;;;;;5036244;28;20044;-74
2023/03/02 07:36:05;;;;;;;4.60;1.70;;;11.10;99.90;;;;;;5034906;28;20045;-74
2023/03/02 07:39:10;;;;;;;3.78;2.17;;;10.60;99.90;;;;;;5035731;28;20060;-74
2023/03/02 07:42:15;;;;;;;5.47;2.13;;;11.00;99.90;;;;;;5035072;28;20109;-73
2023/03/02 07:45:23;;;;;;;3.60;1.98;;;11.20;99.90;;;;;;5034358;28;20048;-74
2023/03/02 07:48:27;;;;;;;7.35;2.60;;;10.80;99.90;;;;;;5033963;28;20409;-72
2023/03/02 07:51:31;;;;;;;9.43;2.70;;;10.00;99.90;;;;;;5034668;28;20048;-74
2023/03/02 07:54:36;;;;;;;6.20;2.63;;;10.90;99.90;;;;;;5037904;28;20048;-74
2023/03/02 07:57:40;;;;;;;4.15;2.35;;;9.50;99.90;;;;;;5039832;28;20044;-72
2023/03/02 08:00:44;;;;;;;2.90;2.20;;;10.80;99.90;;;;;;5037478;28;20041;-72
2023/03/02 08:03:48;;;;;;;3.80;2.70;;;9.90;99.90;;;;;;5034229;28;20049;-72
2023/03/02 08:06:53;;;;;;;7.00;2.53;;;;;;;;;;5033377;28;20560;-73
2023/03/02 08:09:59;;;;;;;4.95;2.22;;;10.20;99.90;;;;;;5034491;28;20033;-72
2023/03/02 08:13:04;;;;;;;4.32;1.92;;;11.70;99.90;;;;;;5033742;28;20048;-73
2023/03/02 08:16:09;;;;;;;3.50;1.75;;;;;;;;;;5033229;28;20044;-71
2023/03/02 08:19:13;;;;;;;3.30;1.83;;;;;;;;;;5034145;28;20034;-73
2023/03/02 08:22:17;;;;;;;3.22;1.50;;;11.30;99.90;;;;;;5033699;28;20041;-73
2023/03/02 08:25:21;;;;;;;3.80;1.65;;;11.20;99.90;;;;;;5032780;28;20121;-73
2023/03/02 08:28:25;;;;;;;3.00;1.70;;;11.30;99.90;;;;;;5032227;28;20060;-73
2023/03/02 08:31:30;;;;;;;3.92;1.70;;;11.50;99.90;;;;;;5031903;28;20045;-73
2023/03/02 08:34:33;;;;;;;3.55;1.70;;;10.60;99.60;;;;;;5033741;28;20529;-72
2023/03/02 08:37:38;;;;;;;3.03;1.70;;;11.60;99.70;;;;;;5031610;28;20409;-73
2023/03/02 08:40:42;;;;;;;3.65;1.58;;;;;;;;;;5033229;28;20053;-74
2023/03/02 08:43:47;;;;;;;5.13;1.70;;;11.70;99.40;;;;;;5033147;28;20041;-73
2023/03/02 08:46:51;;;;;;;5.55;2.28;;;11.70;99.30;;;;;;5032169;28;20048;-73
2023/03/02 08:49:55;;;;;;;4.10;1.80;;;11.90;99.50;;;;;;5034731;28;20060;-73
2023/03/02 08:52:59;;;;;;;5.28;2.03;;;;;;;;;;5032928;28;20044;-72
2023/03/02 08:56:06;;;;;;;3.85;1.88;;;12.00;99.50;;;;;;5033081;28;20045;-72
2023/03/02 08:59:12;;;;;;;3.35;1.90;;;12.50;99.50;;;;;;5032165;28;20663;-73
2023/03/02 09:02:16;;;;;;;4.80;1.88;;;;;;;;;;5031927;28;20057;-73
2023/03/02 09:05:20;;;;;;;4.13;2.17;;;12.10;98.80;;;;;;5032580;28;20026;-72
2023/03/02 09:08:24;;;;;;;2.00;1.50;;;12.10;98.60;;;;;;5033044;28;20112;-71
2023/03/02 09:11:28;;;;;;;5.00;1.80;;;12.10;98.30;;;;;;5032710;28;20385;-72
2023/03/02 09:14:32;;;;;;;3.83;1.70;;;12.20;98.00;;;;;;5031292;28;20060;-73
2023/03/02 09:17:36;;;;;;;3.13;2.20;;;12.20;98.00;;;;;;5032611;28;20056;-72
2023/03/02 09:20:40;;;;;;;5.18;2.40;;;12.20;98.10;;;;;;5033337;28;20401;-72
2023/03/02 09:23:44;;;;;;;3.45;1.83;;;12.30;98.10;;;;;;5032268;28;20048;-74
2023/03/02 09:26:49;;;;;;;3.42;1.92;;;12.50;97.90;;;;;;5035768;28;20045;-73
2023/03/02 09:29:53;;;;;;;2.75;1.48;;;12.60;97.60;;;;;;5031404;28;20053;-74
2023/03/02 09:32:58;;;;;;;2.70;1.98;;;;;;;;;;5033506;28;20045;-73
2023/03/02 09:36:12;;;;;;;2.30;1.70;;;12.70;97.10;;;;;;5034624;28;20045;-74
2023/03/02 09:39:18;;;;;;;3.08;1.45;;;12.00;96.90;;;;;;5031617;28;20516;-73
2023/03/02 09:42:48;;;;;;;3.17;1.20;;;12.90;97.00;;;;;;5031196;28;20409;-73
2023/03/02 09:46:01;;;;;;;2.00;1.15;;;12.80;96.60;;;;;;5032002;28;20048;-72
2023/03/02 09:49:35;;;;;;;2.15;1.08;;;13.00;96.60;;;;;;5031610;28;20072;-72
2023/03/02 09:52:49;;;;;;;2.80;1.25;;;13.10;96.50;;;;;;5032148;28;20639;-72
2023/03/02 09:55:59;;;;;;;1.70;1.13;;;13.10;96.40;;;;;;5031788;28;20052;-74
2023/03/02 09:59:21;;;;;;;2.85;1.42;;;13.70;95.90;;;;;;5031495;28;20054;-73
2023/03/02 10:02:42;;;;;;;3.10;1.15;;;13.20;95.80;;;;;;5031454;28;20060;-70
2023/03/02 10:05:54;;;;;;;2.65;1.08;;;13.60;95.80;;;;;;5030985;28;20084;-73
2023/03/02 10:08:58;;;;;;;2.47;1.10;;;11.80;94.70;;;;;;5031048;28;20056;-70
2023/03/02 10:12:27;;;;;;;2.53;1.10;;;14.30;94.50;;;;;;5031213;28;20052;-68
2023/03/02 10:16:05;;;;;;;1.58;0.90;;;14.50;94.20;;;;;;5030924;28;20048;-70
2023/03/02 10:19:49;;;;;;;2.45;1.08;;;14.60;93.50;;;;;;5031343;28;20048;-69
2023/03/02 10:23:01;;;;;;;3.30;1.05;;;14.40;93.30;;;;;;5030240;28;20048;-71
2023/03/02 10:26:37;;;;;;;5.10;1.00;;;13.30;93.70;;;;;;5030078;28;20040;-73
2023/03/02 10:29:41;;;;;;;1.30;0.90;;;;;;;;;;5031269;28;20064;-72
2023/03/02 10:32:51;;;;;;;5.63;1.30;;;13.90;93.90;;;;;;5031531;28;20643;-71
2023/03/02 10:35:55;;;;;;;2.92;0.90;;;;;;;;;;5031072;28;20052;-70
2023/03/02 10:38:59;;;;;;;9.00;2.03;;;;;;;;;;5031149;28;20504;-70
2023/03/02 10:42:09;;;;;;;7.32;1.83;;;13.80;94.40;;;;;;5030848;28;20037;-70
2023/03/02 10:45:31;;;;;;;7.88;1.67;;;14.00;94.50;;;;;;5030789;28;20052;-70
2023/03/02 10:48:48;;;;;;;2.70;1.65;;;13.70;94.30;;;;;;5030669;28;20052;-72
2023/03/02 10:51:59;;;;;;;1.70;1.00;;;13.80;94.20;;;;;;5029141;28;20045;-72
2023/03/02 10:55:03;;;;;;;2.47;1.30;;;;;;;;;;5028716;28;20405;-71
2023/03/02 10:58:38;;;;;;;1.85;0.90;;;13.80;94.20;;;;;;5029329;28;20037;-70
2023/03/02 11:01:43;;;;;;;5.65;1.00;;;;;;;;;;5030458;28;20049;-71
2023/03/02 11:04:47;;;;;;;4.15;1.00;;;;;;;;;;5030809;28;20073;-71
2023/03/02 11:07:53;;;;;;;1.42;0.88;;;;;;;;;;5030821;28;20046;-69
2023/03/02 11:11:00;;;;;;;4.45;1.33;;;13.70;94.40;;;;;;5030672;28;20045;-69
2023/03/02 11:14:16;;;;;;;3.78;1.08;;;15.80;94.80;;;;;;5030744;28;20056;-70
2023/03/02 11:17:35;;;;;;;3.97;1.65;;;15.70;94.80;;;;;;5030674;28;20044;-68
2023/03/02 11:20:47;;;;;;;1.98;0.98;;;13.70;94.00;;;;;;5030128;28;20052;-71
2023/03/02 11:24:12;;;;;;;2.38;0.80;;;13.80;94.10;;;;;;5030839;28;20048;-71
2023/03/02 11:27:25;;;;;;;4.30;1.50;;;13.80;94.60;;;;;;5030912;28;20044;-72
2023/03/02 11:30:34;;;;;;;2.85;1.05;;;13.80;94.50;;;;;;5030884;28;20048;-70
2023/03/02 11:33:46;;;;;;;4.20;1.20;;;13.90;94.40;;;;;;5030160;28;20044;-70
2023/03/02 11:37:21;;;;;;;3.83;0.88;;;14.30;94.80;;;;;;5030754;28;20064;-73
2023/03/02 11:40:38;;;;;;;7.07;1.30;;;13.70;94.40;;;;;;5033913;28;20512;-71
2023/03/02 11:43:45;;;;;;;2.97;1.10;;;;;;;;;;5033804;28;20072;-68
2023/03/02 11:46:55;;;;;;;2.78;1.23;;;13.70;95.40;;;;;;5033889;28;20045;-69
2023/03/02 11:50:04;;;;;;;3.60;1.60;;;13.40;96.00;;;;;;5033817;28;20060;-71
2023/03/02 11:53:16;;;;;;;4.03;1.10;;;13.70;95.90;;;;;;5032683;28;20053;-72
2023/03/02 11:56:21;;;;;;;4.15;1.70;;;;;;;;;;5033294;28;20049;-70
2023/03/02 11:59:27;;;;;;;3.90;1.83;;;13.60;96.30;;;;;;5032461;28;20033;-72
2023/03/02 12:02:30;;;;;;;3.83;1.90;;;12.00;96.20;;;;;;5033468;28;20049;-72
2023/03/02 12:05:38;;;;;;;3.40;1.60;;;13.70;96.40;;;;;;5033504;28;20048;-73
2023/03/02 12:08:45;;;;;;;6.53;1.75;;;13.70;96.50;;;;;;5033301;28;20409;-73
2023/03/02 12:12:14;;;;;;;2.00;1.20;;;13.60;95.70;;;;;;5032304;28;20091;-74
2023/03/02 12:15:39;;;;;;;2.45;1.50;;;12.70;95.60;;;;;;5032582;28;20404;-72
2023/03/02 12:18:47;;;;;;;5.20;1.73;;;13.50;96.00;;;;;;5033677;28;20040;-73
2023/03/02 12:21:59;;;;;;;3.13;1.50;;;13.70;95.80;;;;;;5032902;28;20401;-72
2023/03/02 12:25:04;;;;;;;4.25;2.05;;;;;;;;;;5032759;28;20052;-75
2023/03/02 12:28:25;;;;;;;4.18;1.90;;;13.40;96.10;;;;;;5033333;28;20045;-72
2023/03/02 12:31:46;;;;;;;3.47;1.50;;;13.20;96.80;;;;;;5033256;28;20064;-72
2023/03/02 12:35:09;;;;;;;3.20;1.50;;;13.20;97.40;;;;;;5033406;28;20056;-74
2023/03/02 12:38:28;;;;;;;3.55;1.90;;;13.10;98.10;;;;;;5032828;28;20405;-73
2023/03/02 12:41:38;;;;;;;2.22;1.42;;;13.20;98.60;;;;;;5033352;28;20056;-74
2023/03/02 12:44:46;;;;;;;3.17;1.85;;;13.00;99.20;;;;;;5032561;28;20109;-72
2023/03/02 12:48:00;;;;;;;3.70;2.45;;;12.90;99.50;;;;;;5032707;28;20504;-70
2023/03/02 12:51:04;;;;;;;4.07;2.10;;;;;;;;;;5033718;28;20040;-72
2023/03/02 12:54:13;;;;;;;6.28;2.65;;;;;;;;;;5032769;28;20367;-72
2023/03/02 12:57:19;;;;;;;5.93;2.83;;;13.00;99.90;;;;;;5032665;28;20366;-71
2023/03/02 13:00:29;;;;;;;3.55;2.47;;;13.00;99.90;;;;;;5034190;28;20048;-72
2023/03/02 13:03:45;;;;;;;7.50;2.65;;;13.00;99.90;;;;;;5032668;28;20048;-70
2023/03/02 13:06:49;;;;;;;5.30;2.92;;;13.20;99.90;;;;;;5032369;28;20044;-70
2023/03/02 13:09:57;;;;;;;6.05;3.28;;;12.70;99.90;;;;;;5032159;28;20124;-70
2023/03/02 13:13:12;;;;;;;6.03;3.72;;;15.60;99.90;;;;;;5032061;28;20040;-70
2023/03/02 13:16:30;;;;;;;5.50;2.95;;;13.70;99.90;;;;;;5032195;28;20040;-71
2023/03/02 13:19:34;;;;;;;6.60;2.35;;;;;;;;;;5032608;28;20053;-69
2023/03/02 13:22:39;;;;;;;5.05;1.63;;;13.70;98.30;;;;;;5032101;28;20037;-69
2023/03/02 13:25:47;;;;;;;5.55;2.00;;;12.90;98.20;;;;;;5031859;28;20049;-71
2023/03/02 13:29:02;;;;;;;3.53;1.52;;;13.10;97.70;;;;;;5032432;28;20060;-73
2023/03/02 13:32:21;;;;;;;4.63;1.50;;;;;;;;;;5032652;28;20048;-73
2023/03/02 13:35:27;;;;;;;5.65;2.47;;;13.00;97.70;;;;;;5032387;28;20041;-73
2023/03/02 13:38:37;;;;;;;6.43;1.45;;;14.00;97.60;;;;;;5031568;28;20405;-74
2023/03/02 13:41:55;;;;;;;2.37;1.40;;;13.30;97.40;;;;;;5032381;28;20504;-73
2023/03/02 13:45:13;;;;;;;2.55;1.55;;;14.00;96.80;;;;;;5032065;28;20036;-72
2023/03/02 13:48:17;;;;;;;4.32;1.90;;;13.90;96.70;;;;;;5031664;28;20080;-71
2023/03/02 13:51:24;;;;;;;3.25;1.20;;;14.00;96.30;;;;;;5031974;28;20048;-72
2023/03/02 13:54:32;;;;;;;3.33;1.77;;;13.90;96.20;;;;;;5031444;28;20041;-72
2023/03/02 13:57:35;;;;;;;3.78;1.95;;;13.90;96.60;;;;;;5032121;28;20048;-74
2023/03/02 14:00:40;;;;;;;3.05;1.92;;;;;;;;;;5030843;28;20044;-70
2023/03/02 14:03:44;;;;;;;4.72;2.03;;;13.80;96.30;;;;;;5030410;28;20041;-68
2023/03/02 14:06:49;;;;;;;3.50;1.98;;;13.80;96.20;;;;;;5031087;28;20040;-71
2023/03/02 14:09:53;;;;;;;5.90;2.78;;;;;;;;;;5030975;28;20076;-75
2023/03/02 14:13:03;;;;;;;7.85;1.95;;;12.20;95.70;;;;;;5030188;28;20033;-71
2023/03/02 14:16:11;;;;;;;6.53;2.60;;;13.80;96.30;;;;;;5031365;28;20044;-72
2023/03/02 14:19:17;;;;;;;6.13;2.85;;;13.80;96.60;;;;;;5030260;28;20045;-70
2023/03/02 14:22:22;;;;;;;6.07;2.50;;;13.90;96.60;;;;;;5031099;28;20534;-71
2023/03/02 14:25:27;;;;;;;7.78;2.65;;;13.90;96.30;;;;;;5031382;28;20044;-72
2023/03/02 14:28:36;;;;;;;7.30;2.95;;;13.80;96.60;;;;;;5031144;28;20500;-70
2023/03/02 14:31:39;;;;;;;15.38;3.70;;;12.80;97.10;;;;;;5031169;28;20373;-68
2023/03/02 14:34:44;;;;;;;8.60;2.97;;;11.60;97.50;;;;;;5030892;28;20044;-67
2023/03/02 14:37:48;;;;;;;12.07;3.75;;;13.90;98.60;;;;;;5030605;28;20079;-66
2023/03/02 14:40:53;;;;;;;8.63;3.45;;;;;;;;;;5031044;28;20540;-69
2023/03/02 14:43:57;;;;;;;5.70;2.60;;;;;;;;;;5029934;28;20033;-70
2023/03/02 14:47:01;;;;;;;7.47;3.50;;;13.50;99.90;;;;;;5030625;28;20426;-68
2023/03/02 14:50:05;;;;;;;10.80;3.17;;;13.60;99.90;;;;;;5031017;28;20052;-67
2023/03/02 14:53:12;;;;;;;9.52;2.55;;;;;;;;;;5030537;28;20132;-70
2023/03/02 14:56:19;;;;;;;11.32;2.88;;;13.80;99.60;;;;;;5031090;28;20037;-71
2023/03/02 14:59:23;;;;;;;5.80;2.22;;;13.70;99.20;;;;;;5030596;28;20049;-69
2023/03/02 15:02:27;;;;;;;7.38;2.15;;;;;;;;;;5030532;28;20048;-69
2023/03/02 15:05:32;;;;;;;6.43;2.42;;;;;;;;;;5030550;28;20485;-70
2023/03/02 15:08:37;;;;;;;8.55;1.92;;;;;;;;;;5030174;28;20041;-69
2023/03/02 15:11:41;;;;;;;7.43;2.20;;;14.90;98.10;;;;;;5031322;28;20041;-70
2023/03/02 15:14:45;;;;;;;8.80;3.05;;;14.10;98.30;;;;;;5034142;28;20571;-70
2023/03/02 15:17:48;;;;;;;5.22;2.53;;;13.80;98.40;;;;;;5034378;28;20113;-70
2023/03/02 15:20:53;;;;;;;5.18;2.05;;;14.20;97.90;;;;;;5033368;28;20044;-70
2023/03/02 15:23:56;;;;;;;7.70;2.58;;;12.80;97.20;;;;;;5033948;28;20393;-69
2023/03/02 15:27:00;;;;;;;6.25;2.35;;;;;;;;;;5033191;28;20043;-69
2023/03/02 15:30:05;;;;;;;5.43;2.42;;;13.70;97.20;;;;;;5034391;28;20050;-71
2023/03/02 15:33:09;;;;;;;6.07;2.70;;;;;;;;;;5034291;28;20064;-72
2023/03/02 15:36:14;;;;;;;5.82;2.30;;;17.60;97.70;;;;;;5033105;28;20482;-71
2023/03/02 15:39:18;;;;;;;8.32;3.58;;;;;;;;;;5034339;28;20060;-70
2023/03/02 15:42:23;;;;;;;6.80;3.40;;;11.30;96.70;;;;;;5034129;28;20509;-69
2023/03/02 15:45:27;;;;;;;9.18;3.42;;;13.80;97.20;;;;;;5034234;28;20040;-69
2023/03/02 15:48:32;;;;;;;5.43;3.50;;;12.80;96.90;;;;;;5034534;28;20124;-71
2023/03/02 15:51:36;;;;;;;6.70;3.30;;;14.30;97.20;;;;;;5034302;28;20064;-69
2023/03/02 15:54:40;;;;;;;13.80;4.10;;;13.60;96.70;;;;;;5037567;28;20040;-70
2023/03/02 15:57:44;;;;;;;8.90;3.90;;;;;;;;;;5035250;28;20057;-68
2023/03/02 16:00:48;;;;;;;7.30;3.70;;;13.70;96.60;;;;;;5033982;28;20029;-70
2023/03/02 16:03:53;;;;;;;8.70;3.00;;;11.30;96.00;;;;;;5033356;28;20500;-69
2023/03/02 16:06:57;;;;;;;5.53;2.70;;;;;;;;;;5034217;28;20489;-70
2023/03/02 16:10:02;;;;;;;6.53;3.00;;;15.90;97.00;;;;;;5033606;28;20049;-70
2023/03/02 16:13:07;;;;;;;7.05;3.28;;;;;;;;;;5010074;28;20531;-73
2023/03/02 16:16:11;;;;;;;8.68;3.25;;;13.70;96.80;;;;;;5033490;28;20049;-73
2023/03/02 16:19:17;;;;;;;8.90;3.35;;;13.60;96.60;;;;;;5033750;28;20041;-72
2023/03/02 16:22:21;;;;;;;12.77;5.13;;;13.80;96.80;;;;;;5032016;28;20057;-73
2023/03/02 16:25:27;;;;;;;17.30;8.50;;;;;;;;;;5032109;28;20032;-71
2023/03/02 16:28:32;;;;;;;15.63;4.63;;;;;;;;;;5033486;28;20477;-70
2023/03/02 16:31:36;;;;;;;14.77;3.13;;;;;;;;;;5032716;28;20060;-71
2023/03/02 16:34:40;;;;;;;11.82;3.60;;;14.10;99.90;;;;;;5033752;28;20033;-76
2023/03/02 16:37:45;;;;;;;19.60;4.07;;;;;;;;;;5031980;28;20409;-76
2023/03/02 16:40:51;;;;;;;13.75;4.20;;;;;;;;;;5033197;28;20037;-75
2023/03/02 16:43:57;;;;;;;10.60;2.35;;;13.50;99.90;;;;;;5032991;28;20037;-75